Terminal Aerodrome Forecast
Issued by NWS

Home | Current Version | Previous Version | Text Only | Print | Product List | Glossary On
Versions: 1 2 3 4 5 6 7 8 9 10 11 12 13 14 15 16 17 18 19 20 21
440
FTUS43 KIND 222320
TAFLAF
TAF
KLAF 222320Z 2300/2324 20006KT P6SM BKN035
     FM230600 20007KT 5SM BR BKN035
     FM231200 23005KT 1 1/2SM BR OVC005
     FM231600 26004KT 4SM BR BKN015
     FM231800 22004KT P6SM BKN020
     FM232000 12005KT P6SM BKN035
     FM232200 08005KT P6SM OVC030
      AMD LTD TO CLD VIS AND WIND 2302/2314=

USA.gov is the U.S. government's official web portal to all federal, state and local government web resources and services.